Terminal Aerodrome Forecast
Issued by NWS

Home | Current Version | Previous Version | Text Only | Print | Product List | Glossary On
Versions: 1 2 3 4 5 6 7 8 9 10 11 12 13 14 15 16 17 18 19 20 21
000
FTUS44 KLZK 201100
TAFLLQ
TAF
KLLQ 201120Z 2012/2112 03003KT P6SM SCT010 BKN040
      TEMPO 2012/2015 4SM BR BKN005
     FM201500 03003KT P6SM BKN015
     FM201700 04004KT P6SM SCT025 BKN060
      TEMPO 2108/2112 4SM BR BKN025=

USA.gov is the U.S. government's official web portal to all federal, state and local government web resources and services.